createdAt,value
2022-10-05T00:01:56.117Z,6.28
2022-10-05T00:04:13.302Z,6.68
2022-10-05T00:06:30.325Z,6.18
2022-10-05T00:08:48.239Z,6.05
2022-10-05T00:11:05.231Z,6.45
2022-10-05T00:13:22.414Z,6.32
2022-10-05T00:15:39.400Z,6.55
2022-10-05T00:17:59.305Z,6.50
2022-10-05T00:20:16.603Z,6.68
2022-10-05T00:22:33.744Z,6.32
2022-10-05T00:24:51.895Z,5.82
2022-10-05T00:27:08.940Z,5.75
2022-10-05T00:29:26.079Z,5.65
2022-10-05T00:31:43.171Z,5.75
2022-10-05T00:34:00.112Z,6.25
2022-10-05T00:36:17.344Z,5.90
2022-10-05T00:38:35.579Z,5.57
2022-10-05T00:40:52.783Z,5.40
2022-10-05T00:43:09.810Z,6.03
2022-10-05T00:45:26.753Z,5.85
2022-10-05T00:47:45.057Z,6.10
2022-10-05T00:50:02.299Z,5.53
2022-10-05T00:52:19.443Z,6.00
2022-10-05T00:54:36.340Z,6.75
2022-10-05T00:56:53.622Z,5.90
2022-10-05T00:59:10.822Z,6.03
2022-10-05T01:01:28.120Z,5.95
2022-10-05T01:03:45.278Z,6.00
2022-10-05T01:06:02.239Z,6.03
2022-10-05T01:08:19.140Z,5.93
2022-10-05T01:10:36.452Z,6.03
2022-10-05T01:12:53.720Z,6.13
2022-10-05T01:15:10.744Z,5.63
2022-10-05T01:17:28.665Z,5.68
2022-10-05T01:19:45.842Z,5.65
2022-10-05T01:22:02.869Z,5.60
2022-10-05T01:24:20.443Z,6.07
2022-10-05T01:26:37.424Z,5.97
2022-10-05T01:28:55.378Z,6.65
2022-10-05T01:31:12.781Z,6.50
2022-10-05T01:33:29.775Z,5.60
2022-10-05T01:35:46.787Z,5.20
2022-10-05T01:38:04.030Z,5.35
2022-10-05T01:40:21.170Z,5.55
2022-10-05T01:42:38.148Z,5.75
2022-10-05T01:44:55.367Z,5.97
2022-10-05T01:47:12.312Z,5.63
2022-10-05T01:49:29.344Z,5.53
2022-10-05T01:51:47.308Z,5.43
2022-10-05T01:54:04.279Z,5.60
2022-10-05T01:56:22.279Z,5.20
2022-10-05T01:58:39.187Z,6.15
2022-10-05T02:00:57.708Z,5.35
2022-10-05T02:03:14.735Z,5.28
2022-10-05T02:05:32.358Z,5.45
2022-10-05T02:07:50.361Z,5.38
2022-10-05T02:10:10.800Z,5.63
2022-10-05T02:12:28.079Z,5.20
2022-10-05T02:14:45.369Z,5.47
2022-10-05T02:17:02.344Z,5.07
2022-10-05T02:19:19.640Z,5.47
2022-10-05T02:21:38.486Z,4.50
2022-10-05T02:23:55.465Z,4.53
2022-10-05T02:26:12.753Z,4.93
2022-10-05T02:28:30.024Z,5.07
2022-10-05T02:30:47.325Z,5.05
2022-10-05T02:33:04.422Z,5.03
2022-10-05T02:35:22.290Z,5.22
2022-10-05T02:37:39.260Z,5.05
2022-10-05T02:39:56.461Z,5.63
2022-10-05T02:42:15.569Z,5.13
2022-10-05T02:44:32.799Z,5.47
2022-10-05T02:46:54.513Z,5.43
2022-10-05T02:49:14.060Z,5.45
2022-10-05T02:51:31.313Z,5.30
2022-10-05T02:53:48.609Z,5.45
2022-10-05T02:56:05.582Z,5.18
2022-10-05T02:58:22.835Z,5.20
2022-10-05T03:00:39.852Z,5.80
2022-10-05T03:02:58.099Z,5.35
2022-10-05T03:05:15.065Z,5.30
2022-10-05T03:07:32.042Z,5.25
2022-10-05T03:09:50.423Z,5.20
2022-10-05T03:12:08.668Z,5.40
2022-10-05T03:14:25.644Z,5.45
2022-10-05T03:16:42.812Z,5.32
2022-10-05T03:19:00.081Z,5.38
2022-10-05T03:21:17.936Z,6.22
2022-10-05T03:23:34.847Z,5.35
2022-10-05T03:25:51.983Z,5.50
2022-10-05T03:28:10.119Z,5.72
2022-10-05T03:30:27.312Z,5.50
2022-10-05T03:32:45.294Z,5.68
2022-10-05T03:35:02.322Z,5.68
2022-10-05T03:37:20.580Z,5.68
2022-10-05T03:39:37.779Z,5.20
2022-10-05T03:41:56.139Z,4.63
2022-10-05T03:44:13.295Z,4.93
2022-10-05T03:46:30.281Z,4.65
2022-10-05T03:48:47.478Z,4.80
2022-10-05T03:51:04.799Z,5.10
2022-10-05T03:53:21.771Z,5.07
2022-10-05T03:55:38.744Z,5.65
2022-10-05T03:57:56.044Z,5.03
2022-10-05T04:00:13.945Z,5.22
2022-10-05T04:02:30.975Z,5.13
2022-10-05T04:04:51.089Z,5.50
2022-10-05T04:07:08.128Z,5.15
2022-10-05T04:09:25.367Z,5.03
2022-10-05T04:11:42.393Z,5.65
2022-10-05T04:13:59.462Z,5.20
2022-10-05T04:16:16.722Z,4.63
2022-10-05T04:18:34.082Z,5.03
2022-10-05T04:20:53.744Z,4.80
2022-10-05T04:23:11.611Z,5.07
2022-10-05T04:25:29.034Z,4.68
2022-10-05T04:27:48.705Z,4.78
2022-10-05T04:30:08.391Z,4.95
2022-10-05T04:32:25.572Z,4.60
2022-10-05T04:34:42.522Z,4.90
2022-10-05T04:37:03.626Z,5.18
2022-10-05T04:39:20.528Z,5.47
2022-10-05T04:41:37.517Z,5.03
2022-10-05T04:43:54.544Z,5.00
2022-10-05T04:46:12.520Z,5.32
2022-10-05T04:48:30.831Z,5.18
2022-10-05T04:50:49.895Z,5.20
2022-10-05T04:53:06.918Z,5.38
2022-10-05T04:55:24.183Z,5.35
2022-10-05T04:57:41.179Z,5.93
2022-10-05T04:59:58.064Z,5.07
2022-10-05T05:02:16.993Z,5.28
2022-10-05T05:04:34.172Z,5.68
2022-10-05T05:06:51.162Z,5.57
2022-10-05T05:09:08.413Z,6.35
2022-10-05T05:11:25.612Z,6.25
2022-10-05T05:13:42.544Z,5.97
2022-10-05T05:15:59.834Z,6.63
2022-10-05T05:18:17.064Z,5.80
2022-10-05T05:20:34.073Z,6.03
2022-10-05T05:22:51.737Z,6.10
2022-10-05T05:25:08.944Z,6.07
2022-10-05T05:27:27.159Z,5.60
2022-10-05T05:29:44.241Z,6.15
2022-10-05T05:32:02.279Z,6.00
2022-10-05T05:34:19.499Z,6.32
2022-10-05T05:36:37.558Z,5.78
2022-10-05T05:38:56.891Z,5.93
2022-10-05T05:41:13.921Z,6.00
2022-10-05T05:43:30.931Z,5.75
2022-10-05T05:45:48.317Z,5.70
2022-10-05T05:48:06.327Z,6.60
2022-10-05T05:50:23.361Z,6.15
2022-10-05T05:52:40.579Z,6.07
2022-10-05T05:54:58.826Z,6.25
2022-10-05T05:57:16.045Z,5.63
2022-10-05T05:59:34.078Z,6.68
2022-10-05T06:01:51.249Z,6.63
2022-10-05T06:04:08.234Z,5.97
2022-10-05T06:06:25.548Z,6.15
2022-10-05T06:08:42.526Z,6.03
2022-10-05T06:10:59.703Z,6.50
2022-10-05T06:13:16.907Z,6.40
2022-10-05T06:15:33.802Z,6.60
2022-10-05T06:17:51.805Z,6.30
2022-10-05T06:20:08.708Z,7.68
2022-10-05T06:22:25.965Z,6.13
2022-10-05T06:24:42.976Z,8.88
2022-10-05T06:26:59.962Z,8.10
2022-10-05T06:29:17.250Z,9.57
2022-10-05T06:31:34.526Z,9.20
2022-10-05T06:33:51.621Z,9.98
2022-10-05T06:36:09.010Z,9.95
2022-10-05T06:38:35.351Z,8.52
2022-10-05T06:40:53.265Z,9.77
2022-10-05T06:43:11.196Z,9.73
2022-10-05T06:45:28.207Z,9.48
2022-10-05T06:47:45.184Z,10.05
2022-10-05T06:50:02.395Z,9.63
2022-10-05T06:52:19.372Z,9.75
2022-10-05T06:54:37.392Z,10.18
2022-10-05T06:56:54.401Z,10.15
2022-10-05T06:59:11.379Z,9.85
2022-10-05T07:01:28.710Z,10.07
2022-10-05T07:03:46.005Z,9.23
2022-10-05T07:06:03.238Z,9.73
2022-10-05T07:08:20.441Z,9.80
2022-10-05T07:10:37.698Z,10.98
2022-10-05T07:12:54.966Z,11.00
2022-10-05T07:15:11.883Z,10.80
2022-10-05T07:17:31.923Z,9.63
2022-10-05T07:19:48.914Z,10.60
2022-10-05T07:22:11.143Z,10.35
2022-10-05T07:24:28.617Z,11.98
2022-10-05T07:26:45.810Z,11.98
2022-10-05T07:29:03.095Z,10.57
2022-10-05T07:31:20.297Z,11.23
2022-10-05T07:33:38.540Z,11.38
2022-10-05T07:35:55.553Z,11.85
2022-10-05T07:38:12.878Z,11.18
2022-10-05T07:40:32.330Z,12.25
2022-10-05T07:42:52.285Z,11.85
2022-10-05T07:45:10.731Z,11.27
2022-10-05T07:47:27.672Z,11.45
2022-10-05T07:49:47.149Z,11.90
2022-10-05T07:52:04.474Z,12.30
2022-10-05T07:54:21.839Z,12.65
2022-10-05T07:56:38.797Z,12.88
2022-10-05T07:58:56.123Z,13.30
2022-10-05T08:01:14.382Z,12.68
2022-10-05T08:03:31.638Z,12.35
2022-10-05T08:05:48.703Z,12.18
2022-10-05T08:08:05.859Z,12.50
2022-10-05T08:10:23.172Z,12.35
2022-10-05T08:12:41.226Z,12.15
2022-10-05T08:14:58.558Z,11.48
2022-10-05T08:17:15.486Z,12.55
2022-10-05T08:19:33.735Z,11.70
2022-10-05T08:21:54.150Z,10.95
2022-10-05T08:24:12.582Z,11.75
2022-10-05T08:26:29.633Z,11.02
2022-10-05T08:28:47.830Z,11.90
2022-10-05T08:31:04.994Z,10.88
2022-10-05T08:33:21.866Z,11.40
2022-10-05T08:35:39.861Z,11.30
2022-10-05T08:37:57.983Z,12.05
2022-10-05T08:40:16.006Z,10.93
2022-10-05T08:42:33.238Z,11.48
2022-10-05T08:44:51.309Z,10.77
2022-10-05T08:47:08.362Z,11.95
2022-10-05T08:49:32.828Z,11.07
2022-10-05T08:51:52.027Z,10.65
2022-10-05T08:54:10.396Z,11.88
2022-10-05T08:56:29.740Z,10.23
2022-10-05T08:58:47.001Z,11.18
2022-10-05T09:01:04.370Z,11.88
2022-10-05T09:03:22.810Z,12.05
2022-10-05T09:05:41.035Z,11.43
2022-10-05T09:07:59.986Z,13.30
2022-10-05T09:10:17.313Z,12.75
2022-10-05T09:12:34.969Z,12.48
2022-10-05T09:15:07.142Z,12.98
2022-10-05T09:17:29.273Z,12.25
2022-10-05T09:19:46.418Z,12.52
2022-10-05T09:22:04.583Z,11.75
2022-10-05T09:24:21.640Z,12.02
2022-10-05T09:31:31.170Z,10.52
2022-10-05T09:33:51.630Z,10.75
2022-10-05T09:36:09.736Z,11.00
2022-10-05T09:38:26.944Z,9.85
2022-10-05T09:40:44.237Z,10.23
2022-10-05T09:43:01.243Z,10.52
2022-10-05T09:45:21.337Z,10.00
2022-10-05T09:47:38.830Z,9.88
2022-10-05T09:49:55.809Z,9.85
2022-10-05T09:52:17.969Z,9.10
2022-10-05T09:54:36.459Z,9.10
2022-10-05T09:56:54.708Z,8.77
2022-10-05T09:59:12.004Z,8.63
2022-10-05T10:01:33.710Z,9.00
2022-10-05T10:03:52.483Z,9.32
2022-10-05T10:06:09.517Z,9.02
2022-10-05T10:08:27.210Z,8.70
2022-10-05T10:10:44.502Z,8.35
2022-10-05T10:13:01.532Z,8.95
2022-10-05T10:15:18.513Z,8.52
2022-10-05T10:17:36.761Z,8.60
2022-10-05T10:19:54.180Z,8.60
2022-10-05T10:22:12.117Z,8.85
2022-10-05T10:24:29.113Z,9.13
2022-10-05T10:26:46.170Z,9.00
2022-10-05T10:29:03.182Z,8.93
2022-10-05T10:31:20.671Z,9.15
2022-10-05T10:33:37.653Z,8.85
2022-10-05T10:35:54.633Z,8.95
2022-10-05T10:38:11.626Z,8.82
2022-10-05T10:40:30.572Z,8.68
2022-10-05T10:42:47.561Z,8.35
2022-10-05T10:45:04.630Z,8.68
2022-10-05T10:47:21.613Z,9.05
2022-10-05T10:49:38.562Z,8.52
2022-10-05T10:51:55.570Z,9.18
2022-10-05T10:54:12.565Z,9.40
2022-10-05T10:56:29.909Z,9.10
2022-10-05T10:58:46.883Z,10.00
2022-10-05T11:01:05.693Z,9.63
2022-10-05T11:03:22.714Z,10.18
2022-10-05T11:05:39.987Z,10.02
2022-10-05T11:07:56.984Z,10.65
2022-10-05T11:10:14.317Z,10.98
2022-10-05T11:12:34.572Z,10.55
2022-10-05T11:14:51.927Z,10.52
2022-10-05T11:17:09.945Z,10.90
2022-10-05T11:19:35.175Z,10.80
2022-10-05T11:22:03.723Z,10.93
2022-10-05T11:24:21.014Z,11.00
2022-10-05T11:26:38.014Z,11.50
2022-10-05T11:28:55.022Z,10.80
2022-10-05T11:31:12.273Z,10.65
2022-10-05T11:33:29.278Z,9.88
2022-10-05T11:35:47.243Z,11.68
2022-10-05T11:38:05.217Z,11.05
2022-10-05T11:40:23.452Z,11.13
2022-10-05T11:42:40.741Z,13.38
2022-10-05T11:44:57.770Z,12.05
2022-10-05T11:47:15.012Z,10.73
2022-10-05T11:49:32.291Z,9.52
2022-10-05T11:51:49.478Z,19.13
2022-10-05T11:54:07.027Z,15.63
2022-10-05T11:56:24.023Z,12.32
2022-10-05T11:58:41.431Z,10.88
2022-10-05T12:00:58.706Z,11.05
2022-10-05T12:03:15.798Z,10.68
2022-10-05T12:05:32.909Z,10.93
2022-10-05T12:07:50.187Z,10.27
2022-10-05T12:10:07.102Z,10.32
2022-10-05T12:12:24.117Z,9.13
2022-10-05T12:14:41.167Z,9.98
2022-10-05T12:16:58.416Z,9.57
2022-10-05T12:19:15.924Z,9.93
2022-10-05T12:21:32.943Z,9.60
2022-10-05T12:23:49.895Z,10.20
2022-10-05T12:26:07.173Z,9.52
2022-10-05T12:28:24.323Z,9.90
2022-10-05T12:30:41.282Z,9.15
2022-10-05T12:33:02.025Z,9.15
2022-10-05T12:35:36.582Z,9.45
2022-10-05T12:37:56.744Z,9.20
2022-10-05T12:40:13.782Z,8.70
2022-10-05T12:42:30.701Z,8.48
2022-10-05T12:44:47.654Z,9.45
2022-10-05T12:47:05.005Z,10.25
2022-10-05T12:49:22.193Z,10.23
2022-10-05T12:51:39.474Z,10.00
2022-10-05T12:53:56.715Z,9.60
2022-10-05T12:56:14.066Z,9.70
2022-10-05T12:58:31.395Z,9.73
2022-10-05T13:00:48.444Z,9.82
2022-10-05T13:22:43.261Z,10.90
2022-10-05T13:25:01.653Z,10.73
2022-10-05T13:27:18.931Z,10.73
2022-10-05T13:29:35.891Z,10.20
2022-10-05T13:31:52.926Z,10.48
2022-10-05T13:34:10.848Z,9.93
2022-10-05T13:36:30.279Z,9.93
2022-10-05T13:38:47.823Z,9.95
2022-10-05T13:41:05.150Z,9.43
2022-10-05T13:43:23.491Z,9.60
2022-10-05T13:45:41.005Z,8.50
2022-10-05T13:47:59.096Z,11.35
2022-10-05T13:50:16.132Z,9.35
2022-10-05T13:52:33.129Z,8.25
2022-10-05T13:54:50.126Z,7.85
2022-10-05T13:57:07.313Z,7.45
2022-10-05T13:59:24.583Z,6.70
2022-10-05T14:01:41.812Z,10.65
2022-10-05T14:03:59.122Z,6.68
2022-10-05T14:06:17.042Z,7.20
2022-10-05T14:08:34.275Z,6.47
2022-10-05T14:10:51.257Z,6.03
2022-10-05T14:15:26.100Z,5.40
2022-10-05T14:17:43.517Z,5.05
2022-10-05T14:20:01.783Z,5.40
2022-10-05T14:22:18.797Z,4.78
2022-10-05T14:24:44.644Z,5.13
2022-10-05T14:27:02.152Z,4.72
2022-10-05T14:29:19.417Z,4.80
2022-10-05T14:31:36.426Z,4.20
2022-10-05T14:33:54.423Z,4.45
2022-10-05T14:36:12.256Z,4.70
2022-10-05T14:38:29.361Z,5.15
2022-10-05T14:40:47.600Z,4.50
2022-10-05T14:43:05.623Z,4.18
2022-10-05T14:45:26.082Z,4.28
2022-10-05T14:47:43.313Z,4.40
2022-10-05T14:50:00.332Z,4.47
2022-10-05T14:52:17.234Z,4.00
2022-10-05T14:54:34.185Z,4.10
2022-10-05T14:56:52.139Z,4.47
2022-10-05T14:59:09.129Z,4.18
2022-10-05T15:01:26.083Z,4.13
2022-10-05T15:03:43.463Z,4.05
2022-10-05T15:06:01.680Z,3.85
2022-10-05T15:08:18.736Z,3.95
2022-10-05T15:10:36.699Z,3.63
2022-10-05T15:12:53.715Z,3.42
2022-10-05T15:15:11.723Z,3.55
2022-10-05T15:17:28.956Z,3.28
2022-10-05T15:19:46.994Z,3.47
2022-10-05T15:22:04.554Z,2.97
2022-10-05T15:24:22.404Z,2.97
2022-10-05T15:26:40.200Z,2.40
2022-10-05T15:28:57.505Z,2.47
2022-10-05T15:31:14.748Z,2.42
2022-10-05T15:33:32.843Z,2.40
2022-10-05T15:35:50.095Z,2.70
2022-10-05T15:38:07.841Z,2.50
2022-10-05T15:40:24.856Z,2.40
2022-10-05T15:42:42.149Z,2.75
2022-10-05T15:44:59.117Z,2.75
2022-10-05T15:47:17.354Z,2.22
2022-10-05T15:49:34.356Z,2.60
2022-10-05T15:51:51.691Z,2.70
2022-10-05T15:54:08.856Z,3.22
2022-10-05T15:56:25.884Z,3.17
2022-10-05T15:58:46.198Z,3.13
2022-10-05T16:01:03.409Z,3.03
2022-10-05T16:03:20.691Z,3.22
2022-10-05T16:05:39.006Z,2.80
2022-10-05T16:07:58.352Z,2.60
2022-10-05T16:10:15.603Z,2.95
2022-10-05T16:12:32.613Z,2.85
2022-10-05T16:14:49.795Z,2.60
2022-10-05T16:17:07.816Z,2.97
2022-10-05T16:19:26.123Z,2.80
2022-10-05T16:21:43.161Z,3.03
2022-10-05T16:24:02.401Z,2.90
2022-10-05T16:26:20.730Z,2.88
2022-10-05T16:28:38.057Z,3.17
2022-10-05T16:30:55.487Z,2.97
2022-10-05T16:33:12.393Z,3.15
2022-10-05T16:35:30.403Z,3.10
2022-10-05T16:37:47.443Z,3.38
2022-10-05T16:40:04.514Z,3.08
2022-10-05T16:42:21.779Z,3.50
2022-10-05T16:44:38.827Z,3.10
2022-10-05T16:46:55.941Z,3.42
2022-10-05T16:49:12.991Z,3.00
2022-10-05T16:51:29.969Z,3.20
2022-10-05T16:53:47.218Z,2.80
2022-10-05T16:56:04.073Z,3.40
2022-10-05T16:58:21.837Z,3.45
2022-10-05T17:00:39.065Z,3.35
2022-10-05T17:02:56.096Z,3.47
2022-10-05T17:05:13.395Z,3.70
2022-10-05T17:07:30.287Z,3.17
2022-10-05T17:09:47.614Z,3.92
2022-10-05T17:12:04.613Z,3.20
2022-10-05T17:14:22.880Z,3.20
2022-10-05T17:16:39.813Z,3.25
2022-10-05T17:18:56.804Z,3.45
2022-10-05T17:21:13.882Z,3.45
2022-10-05T17:23:31.071Z,3.35
2022-10-05T17:25:48.262Z,5.00
2022-10-05T17:28:05.533Z,4.22
2022-10-05T17:30:22.776Z,4.72
2022-10-05T17:32:39.837Z,4.25
2022-10-05T17:34:57.100Z,4.68
2022-10-05T17:37:15.344Z,3.92
2022-10-05T17:39:32.388Z,3.95
2022-10-05T17:41:50.681Z,4.25
2022-10-05T17:44:07.989Z,3.70
2022-10-05T17:46:26.011Z,3.88
2022-10-05T17:48:43.383Z,3.63
2022-10-05T17:51:00.414Z,3.65
2022-10-05T17:53:17.413Z,3.85
2022-10-05T17:55:35.212Z,3.90
2022-10-05T17:57:53.283Z,3.40
2022-10-05T18:00:10.397Z,3.80
2022-10-05T18:02:28.896Z,3.70
2022-10-05T18:04:47.866Z,3.78
2022-10-05T18:07:05.843Z,3.88
2022-10-05T18:09:23.135Z,3.30
2022-10-05T18:11:40.222Z,3.90
2022-10-05T18:13:58.274Z,3.65
2022-10-05T18:16:15.722Z,3.72
2022-10-05T18:18:33.996Z,3.58
2022-10-05T18:20:51.379Z,3.83
2022-10-05T18:23:09.444Z,3.40
2022-10-05T18:25:26.743Z,3.78
2022-10-05T18:27:44.965Z,4.05
2022-10-05T18:30:02.297Z,3.70
2022-10-05T18:32:20.609Z,3.92
2022-10-05T18:34:37.848Z,3.83
2022-10-05T18:36:55.362Z,3.65
2022-10-05T18:39:13.413Z,3.60
2022-10-05T18:41:30.296Z,3.63
2022-10-05T18:43:48.792Z,3.78
2022-10-05T18:46:06.148Z,4.03
2022-10-05T18:48:23.732Z,3.63
2022-10-05T18:50:41.084Z,3.65
2022-10-05T18:53:01.196Z,3.72
2022-10-05T18:55:18.465Z,3.80
2022-10-05T18:57:35.416Z,3.88
2022-10-05T18:59:52.669Z,3.72
2022-10-05T19:02:10.316Z,4.30
2022-10-05T19:04:27.595Z,3.95
2022-10-05T19:06:45.657Z,3.95
2022-10-05T19:09:02.723Z,3.90
2022-10-05T19:11:19.753Z,3.80
2022-10-05T19:13:37.131Z,3.92
2022-10-05T19:15:54.265Z,6.15
2022-10-05T19:18:11.375Z,9.38
2022-10-05T19:20:28.788Z,21.58
2022-10-05T19:22:45.809Z,15.93
2022-10-05T19:25:02.771Z,14.45
2022-10-05T19:27:21.051Z,13.73
2022-10-05T19:29:39.031Z,11.98
2022-10-05T19:31:56.740Z,10.00
2022-10-05T19:34:14.713Z,9.85
2022-10-05T19:36:33.098Z,7.72
2022-10-05T19:38:50.109Z,7.72
2022-10-05T19:41:07.162Z,6.25
2022-10-05T19:43:26.086Z,6.43
2022-10-05T19:45:43.352Z,5.60
2022-10-05T19:48:00.618Z,4.97
2022-10-05T19:50:17.855Z,5.25
2022-10-05T19:52:34.950Z,5.00
2022-10-05T19:54:52.327Z,4.93
2022-10-05T19:57:09.591Z,5.07
2022-10-05T19:59:26.703Z,5.45
2022-10-05T20:01:43.967Z,4.90
2022-10-05T20:04:02.295Z,4.90
2022-10-05T20:06:19.317Z,5.30
2022-10-05T20:08:37.366Z,4.60
2022-10-05T20:10:54.274Z,4.90
2022-10-05T20:13:11.161Z,5.93
2022-10-05T20:15:28.510Z,5.00
2022-10-05T20:17:45.410Z,5.60
2022-10-05T20:20:03.292Z,4.95
2022-10-05T20:22:20.408Z,5.57
2022-10-05T20:24:38.607Z,5.53
2022-10-05T20:26:55.731Z,5.45
2022-10-05T20:29:12.753Z,7.22
2022-10-05T20:31:29.924Z,7.00
2022-10-05T20:33:46.962Z,7.75
2022-10-05T20:36:03.922Z,8.25
2022-10-05T20:38:21.963Z,8.65
2022-10-05T20:40:38.998Z,8.50
2022-10-05T20:42:55.968Z,8.68
2022-10-05T20:45:13.090Z,7.88
2022-10-05T20:47:31.078Z,7.57
2022-10-05T20:49:48.052Z,8.82
2022-10-05T20:52:05.639Z,7.82
2022-10-05T20:54:26.353Z,7.93
2022-10-05T20:56:43.503Z,7.85
2022-10-05T20:59:00.729Z,8.20
2022-10-05T21:01:18.054Z,7.43
2022-10-05T21:03:34.988Z,7.85
2022-10-05T21:05:52.512Z,7.55
2022-10-05T21:08:09.869Z,6.95
2022-10-05T21:10:26.920Z,7.28
2022-10-05T21:12:44.204Z,6.85
2022-10-05T21:15:02.204Z,7.50
2022-10-05T21:17:19.213Z,7.53
2022-10-05T21:19:36.246Z,8.07
2022-10-05T21:21:54.023Z,6.90
2022-10-05T21:24:11.284Z,7.38
2022-10-05T21:26:28.336Z,7.85
2022-10-05T21:28:45.716Z,8.50
2022-10-05T21:31:02.733Z,8.15
2022-10-05T21:33:20.031Z,7.65
2022-10-05T21:35:37.091Z,8.07
2022-10-05T21:37:54.092Z,8.75
2022-10-05T21:40:11.171Z,9.63
2022-10-05T21:42:28.419Z,9.57
2022-10-05T21:44:45.648Z,9.27
2022-10-05T21:47:02.654Z,9.63
2022-10-05T21:49:19.991Z,10.32
2022-10-05T21:51:36.983Z,12.68
2022-10-05T21:53:54.174Z,12.23
2022-10-05T21:56:11.473Z,10.63
2022-10-05T21:58:28.980Z,11.52
2022-10-05T22:00:46.455Z,11.60
2022-10-05T22:03:06.692Z,10.05
2022-10-05T22:05:23.794Z,9.75
2022-10-05T22:07:40.869Z,10.32
2022-10-05T22:09:58.192Z,11.10
2022-10-05T22:12:15.260Z,12.20
2022-10-05T22:14:32.593Z,12.10
2022-10-05T22:16:49.795Z,12.40
2022-10-05T22:19:06.940Z,12.82
2022-10-05T22:21:25.946Z,11.70
2022-10-05T22:23:43.266Z,10.77
2022-10-05T22:26:00.396Z,10.90
2022-10-05T22:28:17.554Z,10.20
2022-10-05T22:30:35.628Z,11.23
2022-10-05T22:32:52.735Z,10.77
2022-10-05T22:35:13.861Z,11.45
2022-10-05T22:37:33.108Z,10.63
2022-10-05T22:39:50.323Z,11.23
2022-10-05T22:42:07.454Z,9.98
2022-10-05T22:44:25.337Z,10.10
2022-10-05T22:46:44.980Z,9.40
2022-10-05T22:49:02.002Z,10.05
2022-10-05T22:51:19.417Z,9.80
2022-10-05T22:53:37.758Z,9.40
2022-10-05T22:55:56.737Z,9.73
2022-10-05T22:58:13.863Z,9.50
2022-10-05T23:00:53.244Z,9.98
2022-10-05T23:03:07.856Z,10.20
2022-10-05T23:05:24.865Z,9.93
2022-10-05T23:07:41.926Z,10.05
2022-10-05T23:10:02.566Z,9.88
2022-10-05T23:12:22.344Z,9.77
2022-10-05T23:14:39.656Z,10.90
2022-10-05T23:16:57.283Z,10.45
2022-10-05T23:19:14.484Z,11.73
2022-10-05T23:21:31.456Z,11.50
2022-10-05T23:23:48.604Z,11.27
2022-10-05T23:26:05.554Z,9.70
2022-10-05T23:28:23.716Z,9.77
2022-10-05T23:30:41.840Z,10.27
2022-10-05T23:32:58.966Z,11.13
2022-10-05T23:35:16.933Z,11.68
2022-10-05T23:37:34.171Z,10.40
2022-10-05T23:39:51.209Z,9.52
2022-10-05T23:42:08.323Z,10.55
2022-10-05T23:44:25.300Z,11.50
2022-10-05T23:46:42.540Z,10.98
2022-10-05T23:48:59.456Z,11.35
2022-10-05T23:51:16.427Z,11.95
2022-10-05T23:53:33.371Z,11.00
2022-10-05T23:55:50.247Z,11.13
2022-10-05T23:58:08.214Z,11.07
